Terminal Aerodrome Forecast
Issued by NWS

Home | Current Version | Previous Version | Text Only | Print | Product List | Glossary Off
Versions: 1 2 3 4 5 6 7 8 9 10 11 12 13 14 15 16

000
FTUS43 KIWX 312300
TAFSBN
TAF
KSBN 312327Z 0100/0124 22004KT P6SM OVC040
     FM010400 25005KT 2SM -SN OVC008
     FM010700 07006KT 1SM -SN OVC008
     FM011400 07012KT 1/2SM SN FZFG VV004
     FM011800 07015G25KT 1/2SM SN FZFG BLSN VV004
     FM012100 07020G30KT 1/4SM SN FZFG BLSN VV004=

USA.gov is the U.S. government's official web portal to all federal, state and local government web resources and services.